sensor_id;sensor_type;location;lat;lon;timestamp;P1;durP1;ratioP1;P2;durP2;ratioP2
14139;SDS011;7150;53.514;9.988;2023-11-21T00:00:14;10.97;;;6.93;;
14139;SDS011;7150;53.514;9.988;2023-11-21T00:02:41;10.00;;;6.30;;
14139;SDS011;7150;53.514;9.988;2023-11-21T00:05:07;11.23;;;7.53;;
14139;SDS011;7150;53.514;9.988;2023-11-21T00:07:38;11.50;;;7.33;;
14139;SDS011;7150;53.514;9.988;2023-11-21T00:10:04;9.77;;;6.20;;
14139;SDS011;7150;53.514;9.988;2023-11-21T00:12:31;12.90;;;6.70;;
14139;SDS011;7150;53.514;9.988;2023-11-21T00:14:58;8.63;;;6.00;;
14139;SDS011;7150;53.514;9.988;2023-11-21T00:17:23;8.50;;;5.67;;
14139;SDS011;7150;53.514;9.988;2023-11-21T00:19:49;9.33;;;5.67;;
14139;SDS011;7150;53.514;9.988;2023-11-21T00:22:17;7.97;;;5.47;;
14139;SDS011;7150;53.514;9.988;2023-11-21T00:24:42;8.47;;;5.83;;
14139;SDS011;7150;53.514;9.988;2023-11-21T00:27:08;9.77;;;5.70;;
14139;SDS011;7150;53.514;9.988;2023-11-21T00:29:33;8.43;;;5.80;;
14139;SDS011;7150;53.514;9.988;2023-11-21T00:31:59;7.67;;;5.40;;
14139;SDS011;7150;53.514;9.988;2023-11-21T00:34:24;6.93;;;5.50;;
14139;SDS011;7150;53.514;9.988;2023-11-21T00:36:50;7.40;;;5.33;;
14139;SDS011;7150;53.514;9.988;2023-11-21T00:39:15;6.87;;;4.70;;
14139;SDS011;7150;53.514;9.988;2023-11-21T00:41:41;6.43;;;4.40;;
14139;SDS011;7150;53.514;9.988;2023-11-21T00:44:07;5.67;;;4.63;;
14139;SDS011;7150;53.514;9.988;2023-11-21T00:46:32;7.33;;;5.67;;
14139;SDS011;7150;53.514;9.988;2023-11-21T00:48:58;7.67;;;5.57;;
14139;SDS011;7150;53.514;9.988;2023-11-21T00:51:23;7.93;;;5.43;;
14139;SDS011;7150;53.514;9.988;2023-11-21T00:53:49;8.60;;;5.50;;
14139;SDS011;7150;53.514;9.988;2023-11-21T00:56:15;7.47;;;5.13;;
14139;SDS011;7150;53.514;9.988;2023-11-21T00:58:41;7.23;;;4.80;;
14139;SDS011;7150;53.514;9.988;2023-11-21T01:01:11;5.90;;;5.10;;
14139;SDS011;7150;53.514;9.988;2023-11-21T01:03:37;8.17;;;5.10;;
14139;SDS011;7150;53.514;9.988;2023-11-21T01:06:02;7.83;;;4.90;;
14139;SDS011;7150;53.514;9.988;2023-11-21T01:08:29;7.50;;;4.83;;
14139;SDS011;7150;53.514;9.988;2023-11-21T01:10:56;7.43;;;5.57;;
14139;SDS011;7150;53.514;9.988;2023-11-21T01:13:21;6.97;;;5.07;;
14139;SDS011;7150;53.514;9.988;2023-11-21T01:15:47;8.30;;;5.73;;
14139;SDS011;7150;53.514;9.988;2023-11-21T01:18:12;9.13;;;5.90;;
14139;SDS011;7150;53.514;9.988;2023-11-21T01:20:38;10.07;;;5.67;;
14139;SDS011;7150;53.514;9.988;2023-11-21T01:23:03;9.40;;;6.33;;
14139;SDS011;7150;53.514;9.988;2023-11-21T01:25:29;8.23;;;5.83;;
14139;SDS011;7150;53.514;9.988;2023-11-21T01:27:55;10.13;;;6.60;;
14139;SDS011;7150;53.514;9.988;2023-11-21T01:30:21;12.27;;;6.80;;
14139;SDS011;7150;53.514;9.988;2023-11-21T01:32:46;12.17;;;7.13;;
14139;SDS011;7150;53.514;9.988;2023-11-21T01:35:12;11.20;;;6.87;;
14139;SDS011;7150;53.514;9.988;2023-11-21T01:37:38;10.03;;;6.80;;
14139;SDS011;7150;53.514;9.988;2023-11-21T01:40:04;9.10;;;6.67;;
14139;SDS011;7150;53.514;9.988;2023-11-21T01:42:35;9.53;;;6.70;;
14139;SDS011;7150;53.514;9.988;2023-11-21T01:45:01;7.63;;;5.97;;
14139;SDS011;7150;53.514;9.988;2023-11-21T01:47:29;8.77;;;6.00;;
14139;SDS011;7150;53.514;9.988;2023-11-21T01:49:56;9.93;;;6.80;;
14139;SDS011;7150;53.514;9.988;2023-11-21T01:52:22;10.27;;;7.03;;
14139;SDS011;7150;53.514;9.988;2023-11-21T01:54:48;10.63;;;7.00;;
14139;SDS011;7150;53.514;9.988;2023-11-21T01:57:13;8.73;;;6.23;;
14139;SDS011;7150;53.514;9.988;2023-11-21T01:59:40;11.10;;;7.17;;
14139;SDS011;7150;53.514;9.988;2023-11-21T02:02:07;8.13;;;6.20;;
14139;SDS011;7150;53.514;9.988;2023-11-21T02:04:34;8.63;;;6.37;;
14139;SDS011;7150;53.514;9.988;2023-11-21T02:07:01;7.20;;;5.17;;
14139;SDS011;7150;53.514;9.988;2023-11-21T02:09:31;9.30;;;5.90;;
14139;SDS011;7150;53.514;9.988;2023-11-21T02:11:58;8.87;;;6.27;;
14139;SDS011;7150;53.514;9.988;2023-11-21T02:14:24;6.70;;;5.13;;
14139;SDS011;7150;53.514;9.988;2023-11-21T02:16:51;8.00;;;5.87;;
14139;SDS011;7150;53.514;9.988;2023-11-21T02:19:18;7.10;;;5.20;;
14139;SDS011;7150;53.514;9.988;2023-11-21T02:21:50;7.47;;;5.37;;
14139;SDS011;7150;53.514;9.988;2023-11-21T02:24:18;7.53;;;5.33;;
14139;SDS011;7150;53.514;9.988;2023-11-21T02:26:47;7.73;;;5.23;;
14139;SDS011;7150;53.514;9.988;2023-11-21T02:29:16;7.47;;;5.53;;
14139;SDS011;7150;53.514;9.988;2023-11-21T02:31:43;7.83;;;5.23;;
14139;SDS011;7150;53.514;9.988;2023-11-21T02:34:15;6.43;;;5.27;;
14139;SDS011;7150;53.514;9.988;2023-11-21T02:36:41;5.97;;;4.67;;
14139;SDS011;7150;53.514;9.988;2023-11-21T02:39:10;6.57;;;5.00;;
14139;SDS011;7150;53.514;9.988;2023-11-21T02:41:39;8.20;;;4.70;;
14139;SDS011;7150;53.514;9.988;2023-11-21T02:44:07;7.40;;;5.23;;
14139;SDS011;7150;53.514;9.988;2023-11-21T02:46:33;7.07;;;4.80;;
14139;SDS011;7150;53.514;9.988;2023-11-21T02:49:05;6.10;;;4.73;;
14139;SDS011;7150;53.514;9.988;2023-11-21T02:51:31;6.87;;;4.40;;
14139;SDS011;7150;53.514;9.988;2023-11-21T02:53:57;7.00;;;4.80;;
14139;SDS011;7150;53.514;9.988;2023-11-21T02:56:24;6.83;;;4.73;;
14139;SDS011;7150;53.514;9.988;2023-11-21T02:58:56;6.33;;;5.03;;
14139;SDS011;7150;53.514;9.988;2023-11-21T03:01:21;6.47;;;4.73;;
14139;SDS011;7150;53.514;9.988;2023-11-21T03:03:49;6.53;;;4.80;;
14139;SDS011;7150;53.514;9.988;2023-11-21T03:06:16;7.43;;;4.77;;
14139;SDS011;7150;53.514;9.988;2023-11-21T03:08:42;6.07;;;4.70;;
14139;SDS011;7150;53.514;9.988;2023-11-21T03:11:08;8.10;;;5.40;;
14139;SDS011;7150;53.514;9.988;2023-11-21T03:13:33;7.63;;;5.33;;
14139;SDS011;7150;53.514;9.988;2023-11-21T03:15:58;6.63;;;4.33;;
14139;SDS011;7150;53.514;9.988;2023-11-21T03:18:24;5.73;;;4.63;;
14139;SDS011;7150;53.514;9.988;2023-11-21T03:20:51;6.27;;;4.90;;
14139;SDS011;7150;53.514;9.988;2023-11-21T03:23:17;7.73;;;4.77;;
14139;SDS011;7150;53.514;9.988;2023-11-21T03:25:43;6.70;;;4.70;;
14139;SDS011;7150;53.514;9.988;2023-11-21T03:28:09;5.70;;;4.73;;
14139;SDS011;7150;53.514;9.988;2023-11-21T03:30:34;6.40;;;4.70;;
14139;SDS011;7150;53.514;9.988;2023-11-21T03:33:00;17.13;;;10.33;;
14139;SDS011;7150;53.514;9.988;2023-11-21T03:35:25;13.53;;;8.50;;
14139;SDS011;7150;53.514;9.988;2023-11-21T03:37:51;9.97;;;6.17;;
14139;SDS011;7150;53.514;9.988;2023-11-21T03:40:17;9.23;;;5.90;;
14139;SDS011;7150;53.514;9.988;2023-11-21T03:42:42;8.63;;;5.30;;
14139;SDS011;7150;53.514;9.988;2023-11-21T03:45:08;6.97;;;4.77;;
14139;SDS011;7150;53.514;9.988;2023-11-21T03:47:33;6.53;;;4.90;;
14139;SDS011;7150;53.514;9.988;2023-11-21T03:49:59;7.47;;;5.70;;
14139;SDS011;7150;53.514;9.988;2023-11-21T03:52:24;7.87;;;4.93;;
14139;SDS011;7150;53.514;9.988;2023-11-21T03:54:50;7.77;;;5.27;;
14139;SDS011;7150;53.514;9.988;2023-11-21T03:57:16;6.93;;;5.07;;
14139;SDS011;7150;53.514;9.988;2023-11-21T03:59:42;6.90;;;5.37;;
14139;SDS011;7150;53.514;9.988;2023-11-21T04:02:08;7.10;;;5.47;;
14139;SDS011;7150;53.514;9.988;2023-11-21T04:04:34;6.90;;;5.07;;
14139;SDS011;7150;53.514;9.988;2023-11-21T04:07:01;6.60;;;5.13;;
14139;SDS011;7150;53.514;9.988;2023-11-21T04:09:26;6.90;;;4.77;;
14139;SDS011;7150;53.514;9.988;2023-11-21T04:11:53;8.03;;;5.20;;
14139;SDS011;7150;53.514;9.988;2023-11-21T04:14:18;7.37;;;5.57;;
14139;SDS011;7150;53.514;9.988;2023-11-21T04:16:44;7.90;;;5.50;;
14139;SDS011;7150;53.514;9.988;2023-11-21T04:19:10;7.50;;;5.27;;
14139;SDS011;7150;53.514;9.988;2023-11-21T04:21:36;7.43;;;5.13;;
14139;SDS011;7150;53.514;9.988;2023-11-21T04:24:02;8.27;;;5.33;;
14139;SDS011;7150;53.514;9.988;2023-11-21T04:26:27;8.67;;;5.10;;
14139;SDS011;7150;53.514;9.988;2023-11-21T04:28:53;9.53;;;6.03;;
14139;SDS011;7150;53.514;9.988;2023-11-21T04:31:18;7.73;;;5.50;;
14139;SDS011;7150;53.514;9.988;2023-11-21T04:33:44;8.23;;;5.40;;
14139;SDS011;7150;53.514;9.988;2023-11-21T04:36:09;7.57;;;5.40;;
14139;SDS011;7150;53.514;9.988;2023-11-21T04:38:35;7.07;;;4.90;;
14139;SDS011;7150;53.514;9.988;2023-11-21T04:41:01;7.63;;;5.70;;
14139;SDS011;7150;53.514;9.988;2023-11-21T04:43:26;7.27;;;5.40;;
14139;SDS011;7150;53.514;9.988;2023-11-21T04:45:52;6.40;;;5.10;;
14139;SDS011;7150;53.514;9.988;2023-11-21T04:48:19;7.83;;;5.43;;
14139;SDS011;7150;53.514;9.988;2023-11-21T04:50:45;7.90;;;5.33;;
14139;SDS011;7150;53.514;9.988;2023-11-21T04:53:10;6.80;;;5.23;;
14139;SDS011;7150;53.514;9.988;2023-11-21T04:55:38;7.90;;;5.33;;
14139;SDS011;7150;53.514;9.988;2023-11-21T04:58:04;8.10;;;5.40;;
14139;SDS011;7150;53.514;9.988;2023-11-21T05:00:30;7.87;;;5.63;;
14139;SDS011;7150;53.514;9.988;2023-11-21T05:02:55;8.23;;;6.00;;
14139;SDS011;7150;53.514;9.988;2023-11-21T05:05:20;6.90;;;5.27;;
14139;SDS011;7150;53.514;9.988;2023-11-21T05:07:46;7.20;;;5.23;;
14139;SDS011;7150;53.514;9.988;2023-11-21T05:10:12;7.80;;;5.20;;
14139;SDS011;7150;53.514;9.988;2023-11-21T05:12:39;7.43;;;5.47;;
14139;SDS011;7150;53.514;9.988;2023-11-21T05:15:06;7.17;;;5.27;;
14139;SDS011;7150;53.514;9.988;2023-11-21T05:17:36;6.63;;;5.10;;
14139;SDS011;7150;53.514;9.988;2023-11-21T05:20:02;7.80;;;5.37;;
14139;SDS011;7150;53.514;9.988;2023-11-21T05:22:29;7.90;;;5.80;;
14139;SDS011;7150;53.514;9.988;2023-11-21T05:24:55;8.57;;;5.17;;
14139;SDS011;7150;53.514;9.988;2023-11-21T05:27:20;7.07;;;5.10;;
14139;SDS011;7150;53.514;9.988;2023-11-21T05:29:46;8.53;;;6.23;;
14139;SDS011;7150;53.514;9.988;2023-11-21T05:32:11;7.80;;;5.80;;
14139;SDS011;7150;53.514;9.988;2023-11-21T05:34:37;9.20;;;5.73;;
14139;SDS011;7150;53.514;9.988;2023-11-21T05:37:02;12.37;;;6.20;;
14139;SDS011;7150;53.514;9.988;2023-11-21T05:39:30;8.63;;;6.10;;
14139;SDS011;7150;53.514;9.988;2023-11-21T05:41:56;8.30;;;5.40;;
14139;SDS011;7150;53.514;9.988;2023-11-21T05:44:22;9.37;;;5.87;;
14139;SDS011;7150;53.514;9.988;2023-11-21T05:46:48;8.93;;;5.93;;
14139;SDS011;7150;53.514;9.988;2023-11-21T05:49:15;7.50;;;5.07;;
14139;SDS011;7150;53.514;9.988;2023-11-21T05:51:41;7.97;;;5.50;;
14139;SDS011;7150;53.514;9.988;2023-11-21T05:54:06;7.30;;;5.70;;
14139;SDS011;7150;53.514;9.988;2023-11-21T05:56:33;7.63;;;5.40;;
14139;SDS011;7150;53.514;9.988;2023-11-21T05:58:58;9.00;;;5.27;;
14139;SDS011;7150;53.514;9.988;2023-11-21T06:01:25;6.97;;;5.33;;
14139;SDS011;7150;53.514;9.988;2023-11-21T06:03:53;8.53;;;5.67;;
14139;SDS011;7150;53.514;9.988;2023-11-21T06:06:19;7.20;;;5.53;;
14139;SDS011;7150;53.514;9.988;2023-11-21T06:08:44;7.20;;;4.97;;
14139;SDS011;7150;53.514;9.988;2023-11-21T06:11:10;7.47;;;5.17;;
14139;SDS011;7150;53.514;9.988;2023-11-21T06:13:36;9.00;;;5.87;;
14139;SDS011;7150;53.514;9.988;2023-11-21T06:16:03;6.47;;;4.93;;
14139;SDS011;7150;53.514;9.988;2023-11-21T06:18:29;8.33;;;5.43;;
14139;SDS011;7150;53.514;9.988;2023-11-21T06:20:55;7.43;;;5.53;;
14139;SDS011;7150;53.514;9.988;2023-11-21T06:23:20;7.23;;;5.83;;
14139;SDS011;7150;53.514;9.988;2023-11-21T06:25:46;7.07;;;4.90;;
14139;SDS011;7150;53.514;9.988;2023-11-21T06:28:11;8.40;;;6.17;;
14139;SDS011;7150;53.514;9.988;2023-11-21T06:30:37;7.03;;;5.27;;
14139;SDS011;7150;53.514;9.988;2023-11-21T06:33:03;8.07;;;5.57;;
14139;SDS011;7150;53.514;9.988;2023-11-21T06:35:28;7.10;;;4.97;;
14139;SDS011;7150;53.514;9.988;2023-11-21T06:37:55;7.80;;;5.23;;
14139;SDS011;7150;53.514;9.988;2023-11-21T06:40:20;7.33;;;5.50;;
14139;SDS011;7150;53.514;9.988;2023-11-21T06:42:46;6.53;;;5.10;;
14139;SDS011;7150;53.514;9.988;2023-11-21T06:45:12;7.90;;;5.53;;
14139;SDS011;7150;53.514;9.988;2023-11-21T06:47:38;8.00;;;5.17;;
14139;SDS011;7150;53.514;9.988;2023-11-21T06:50:04;8.60;;;5.60;;
14139;SDS011;7150;53.514;9.988;2023-11-21T06:52:31;7.50;;;5.23;;
14139;SDS011;7150;53.514;9.988;2023-11-21T06:54:57;8.33;;;5.90;;
14139;SDS011;7150;53.514;9.988;2023-11-21T06:57:23;8.03;;;4.97;;
14139;SDS011;7150;53.514;9.988;2023-11-21T06:59:48;7.87;;;5.63;;
14139;SDS011;7150;53.514;9.988;2023-11-21T07:02:15;6.83;;;5.60;;
14139;SDS011;7150;53.514;9.988;2023-11-21T07:04:43;10.33;;;5.80;;
14139;SDS011;7150;53.514;9.988;2023-11-21T07:07:11;8.33;;;6.10;;
14139;SDS011;7150;53.514;9.988;2023-11-21T07:09:37;8.23;;;6.00;;
14139;SDS011;7150;53.514;9.988;2023-11-21T07:12:03;8.30;;;6.37;;
14139;SDS011;7150;53.514;9.988;2023-11-21T07:14:31;7.80;;;5.70;;
14139;SDS011;7150;53.514;9.988;2023-11-21T07:16:57;8.30;;;5.97;;
14139;SDS011;7150;53.514;9.988;2023-11-21T07:19:22;7.30;;;5.93;;
14139;SDS011;7150;53.514;9.988;2023-11-21T07:21:48;7.77;;;5.80;;
14139;SDS011;7150;53.514;9.988;2023-11-21T07:24:16;7.37;;;5.50;;
14139;SDS011;7150;53.514;9.988;2023-11-21T07:26:41;9.67;;;5.97;;
14139;SDS011;7150;53.514;9.988;2023-11-21T07:29:08;7.80;;;5.73;;
14139;SDS011;7150;53.514;9.988;2023-11-21T07:31:33;7.57;;;5.90;;
14139;SDS011;7150;53.514;9.988;2023-11-21T07:33:59;7.70;;;5.33;;
14139;SDS011;7150;53.514;9.988;2023-11-21T07:36:25;8.60;;;6.10;;
14139;SDS011;7150;53.514;9.988;2023-11-21T07:38:51;8.63;;;6.27;;
14139;SDS011;7150;53.514;9.988;2023-11-21T07:41:17;7.60;;;5.43;;
14139;SDS011;7150;53.514;9.988;2023-11-21T07:43:43;8.07;;;5.47;;
14139;SDS011;7150;53.514;9.988;2023-11-21T07:46:09;7.80;;;5.43;;
14139;SDS011;7150;53.514;9.988;2023-11-21T07:48:37;6.60;;;5.53;;
14139;SDS011;7150;53.514;9.988;2023-11-21T07:51:03;7.00;;;5.63;;
14139;SDS011;7150;53.514;9.988;2023-11-21T07:53:29;8.10;;;5.20;;
14139;SDS011;7150;53.514;9.988;2023-11-21T07:55:55;7.10;;;4.73;;
14139;SDS011;7150;53.514;9.988;2023-11-21T07:58:27;6.47;;;5.33;;
14139;SDS011;7150;53.514;9.988;2023-11-21T08:00:52;7.57;;;5.10;;
14139;SDS011;7150;53.514;9.988;2023-11-21T08:03:18;7.43;;;4.80;;
14139;SDS011;7150;53.514;9.988;2023-11-21T08:05:43;6.43;;;5.20;;
14139;SDS011;7150;53.514;9.988;2023-11-21T08:08:09;6.80;;;5.00;;
14139;SDS011;7150;53.514;9.988;2023-11-21T08:10:35;7.93;;;5.73;;
14139;SDS011;7150;53.514;9.988;2023-11-21T08:13:01;6.50;;;4.67;;
14139;SDS011;7150;53.514;9.988;2023-11-21T08:15:27;6.77;;;4.67;;
14139;SDS011;7150;53.514;9.988;2023-11-21T08:17:52;5.77;;;4.80;;
14139;SDS011;7150;53.514;9.988;2023-11-21T08:20:18;6.80;;;4.53;;
14139;SDS011;7150;53.514;9.988;2023-11-21T08:22:43;5.17;;;4.67;;
14139;SDS011;7150;53.514;9.988;2023-11-21T08:25:09;6.43;;;4.13;;
14139;SDS011;7150;53.514;9.988;2023-11-21T08:27:35;8.50;;;5.10;;
14139;SDS011;7150;53.514;9.988;2023-11-21T08:30:02;6.80;;;4.57;;
14139;SDS011;7150;53.514;9.988;2023-11-21T08:32:28;6.90;;;5.13;;
14139;SDS011;7150;53.514;9.988;2023-11-21T08:34:55;5.90;;;4.60;;
14139;SDS011;7150;53.514;9.988;2023-11-21T08:37:21;5.60;;;3.83;;
14139;SDS011;7150;53.514;9.988;2023-11-21T08:39:47;5.53;;;3.93;;
14139;SDS011;7150;53.514;9.988;2023-11-21T08:42:17;7.27;;;3.70;;
14139;SDS011;7150;53.514;9.988;2023-11-21T08:44:43;6.30;;;3.70;;
14139;SDS011;7150;53.514;9.988;2023-11-21T08:47:09;5.23;;;4.20;;
14139;SDS011;7150;53.514;9.988;2023-11-21T08:49:34;6.50;;;3.87;;
14139;SDS011;7150;53.514;9.988;2023-11-21T08:52:00;5.17;;;3.50;;
14139;SDS011;7150;53.514;9.988;2023-11-21T08:54:26;4.60;;;3.70;;
14139;SDS011;7150;53.514;9.988;2023-11-21T08:56:51;4.20;;;3.30;;
14139;SDS011;7150;53.514;9.988;2023-11-21T08:59:18;5.30;;;3.67;;
14139;SDS011;7150;53.514;9.988;2023-11-21T09:01:45;5.00;;;3.40;;
14139;SDS011;7150;53.514;9.988;2023-11-21T09:04:13;5.47;;;3.50;;
14139;SDS011;7150;53.514;9.988;2023-11-21T09:06:39;4.07;;;3.40;;
14139;SDS011;7150;53.514;9.988;2023-11-21T09:09:05;5.20;;;3.40;;
14139;SDS011;7150;53.514;9.988;2023-11-21T09:11:33;4.23;;;3.60;;
14139;SDS011;7150;53.514;9.988;2023-11-21T09:14:00;5.20;;;3.43;;
14139;SDS011;7150;53.514;9.988;2023-11-21T09:16:26;7.87;;;3.57;;
14139;SDS011;7150;53.514;9.988;2023-11-21T09:18:51;5.43;;;3.80;;
14139;SDS011;7150;53.514;9.988;2023-11-21T09:21:17;5.80;;;3.30;;
14139;SDS011;7150;53.514;9.988;2023-11-21T09:23:44;3.50;;;2.57;;
14139;SDS011;7150;53.514;9.988;2023-11-21T09:26:09;5.20;;;3.30;;
14139;SDS011;7150;53.514;9.988;2023-11-21T09:28:35;3.53;;;2.73;;
14139;SDS011;7150;53.514;9.988;2023-11-21T09:31:07;4.63;;;3.40;;
14139;SDS011;7150;53.514;9.988;2023-11-21T09:33:34;3.30;;;2.70;;
14139;SDS011;7150;53.514;9.988;2023-11-21T09:36:00;4.47;;;3.03;;
14139;SDS011;7150;53.514;9.988;2023-11-21T09:38:26;3.13;;;2.60;;
14139;SDS011;7150;53.514;9.988;2023-11-21T09:40:53;5.07;;;2.90;;
14139;SDS011;7150;53.514;9.988;2023-11-21T09:43:20;3.17;;;2.70;;
14139;SDS011;7150;53.514;9.988;2023-11-21T09:45:47;2.93;;;2.50;;
14139;SDS011;7150;53.514;9.988;2023-11-21T09:48:19;5.50;;;3.00;;
14139;SDS011;7150;53.514;9.988;2023-11-21T09:50:45;2.97;;;2.30;;
14139;SDS011;7150;53.514;9.988;2023-11-21T09:53:13;4.30;;;2.50;;
14139;SDS011;7150;53.514;9.988;2023-11-21T09:55:46;5.17;;;3.00;;
14139;SDS011;7150;53.514;9.988;2023-11-21T09:58:13;3.93;;;2.70;;
14139;SDS011;7150;53.514;9.988;2023-11-21T10:00:40;3.43;;;2.80;;
14139;SDS011;7150;53.514;9.988;2023-11-21T10:03:07;3.90;;;2.73;;
14139;SDS011;7150;53.514;9.988;2023-11-21T10:05:33;2.93;;;2.60;;
14139;SDS011;7150;53.514;9.988;2023-11-21T10:07:59;3.90;;;3.00;;
14139;SDS011;7150;53.514;9.988;2023-11-21T10:10:25;3.40;;;2.87;;
14139;SDS011;7150;53.514;9.988;2023-11-21T10:12:55;6.43;;;3.13;;
14139;SDS011;7150;53.514;9.988;2023-11-21T10:15:22;4.00;;;2.93;;
14139;SDS011;7150;53.514;9.988;2023-11-21T10:17:50;5.00;;;3.00;;
14139;SDS011;7150;53.514;9.988;2023-11-21T10:20:18;3.67;;;2.53;;
14139;SDS011;7150;53.514;9.988;2023-11-21T10:22:51;3.70;;;2.60;;
14139;SDS011;7150;53.514;9.988;2023-11-21T10:25:16;4.53;;;2.60;;
14139;SDS011;7150;53.514;9.988;2023-11-21T10:27:46;2.83;;;2.60;;
14139;SDS011;7150;53.514;9.988;2023-11-21T10:30:12;3.63;;;2.63;;
14139;SDS011;7150;53.514;9.988;2023-11-21T10:32:38;4.27;;;3.00;;
14139;SDS011;7150;53.514;9.988;2023-11-21T10:35:05;3.23;;;2.70;;
14139;SDS011;7150;53.514;9.988;2023-11-21T10:37:35;3.83;;;2.73;;
14139;SDS011;7150;53.514;9.988;2023-11-21T10:40:10;2.90;;;2.50;;
14139;SDS011;7150;53.514;9.988;2023-11-21T10:42:37;2.57;;;2.20;;
14139;SDS011;7150;53.514;9.988;2023-11-21T10:45:07;3.23;;;2.80;;
14139;SDS011;7150;53.514;9.988;2023-11-21T10:47:39;3.07;;;2.60;;
14139;SDS011;7150;53.514;9.988;2023-11-21T10:50:06;3.17;;;2.50;;
14139;SDS011;7150;53.514;9.988;2023-11-21T10:52:36;3.47;;;2.67;;
14139;SDS011;7150;53.514;9.988;2023-11-21T10:55:15;3.90;;;2.60;;
14139;SDS011;7150;53.514;9.988;2023-11-21T10:57:51;3.20;;;2.90;;
14139;SDS011;7150;53.514;9.988;2023-11-21T11:00:19;3.00;;;2.40;;
14139;SDS011;7150;53.514;9.988;2023-11-21T11:02:46;4.80;;;2.73;;
14139;SDS011;7150;53.514;9.988;2023-11-21T11:05:18;3.50;;;2.50;;
14139;SDS011;7150;53.514;9.988;2023-11-21T11:07:45;4.20;;;2.20;;
14139;SDS011;7150;53.514;9.988;2023-11-21T11:10:13;2.90;;;2.03;;
14139;SDS011;7150;53.514;9.988;2023-11-21T11:12:39;2.47;;;2.17;;
14139;SDS011;7150;53.514;9.988;2023-11-21T11:15:06;2.90;;;2.40;;
14139;SDS011;7150;53.514;9.988;2023-11-21T11:17:34;2.40;;;2.20;;
14139;SDS011;7150;53.514;9.988;2023-11-21T11:20:03;3.43;;;2.33;;
14139;SDS011;7150;53.514;9.988;2023-11-21T11:22:48;4.63;;;2.40;;
14139;SDS011;7150;53.514;9.988;2023-11-21T11:31:40;3.40;;;2.50;;
14139;SDS011;7150;53.514;9.988;2023-11-21T11:34:30;3.50;;;2.40;;
14139;SDS011;7150;53.514;9.988;2023-11-21T11:37:02;3.60;;;2.83;;
14139;SDS011;7150;53.514;9.988;2023-11-21T11:39:30;3.30;;;2.20;;
14139;SDS011;7150;53.514;9.988;2023-11-21T11:42:01;3.70;;;2.30;;
14139;SDS011;7150;53.514;9.988;2023-11-21T11:47:16;2.60;;;2.20;;
14139;SDS011;7150;53.514;9.988;2023-11-21T11:49:57;2.70;;;2.50;;
14139;SDS011;7150;53.514;9.988;2023-11-21T11:55:14;4.10;;;2.60;;
14139;SDS011;7150;53.514;9.988;2023-11-21T11:57:45;3.80;;;2.77;;
14139;SDS011;7150;53.514;9.988;2023-11-21T12:00:13;2.40;;;2.20;;
14139;SDS011;7150;53.514;9.988;2023-11-21T12:02:51;3.67;;;2.30;;
14139;SDS011;7150;53.514;9.988;2023-11-21T12:05:19;2.70;;;2.13;;
14139;SDS011;7150;53.514;9.988;2023-11-21T12:10:19;2.80;;;2.23;;
14139;SDS011;7150;53.514;9.988;2023-11-21T12:12:54;3.43;;;2.33;;
14139;SDS011;7150;53.514;9.988;2023-11-21T12:15:21;2.93;;;2.20;;
14139;SDS011;7150;53.514;9.988;2023-11-21T12:17:48;2.90;;;2.40;;
14139;SDS011;7150;53.514;9.988;2023-11-21T12:20:19;3.40;;;2.57;;
14139;SDS011;7150;53.514;9.988;2023-11-21T12:22:46;3.23;;;2.30;;
14139;SDS011;7150;53.514;9.988;2023-11-21T12:25:16;3.47;;;2.13;;
14139;SDS011;7150;53.514;9.988;2023-11-21T12:27:43;3.87;;;2.40;;
14139;SDS011;7150;53.514;9.988;2023-11-21T12:30:28;4.37;;;2.77;;
14139;SDS011;7150;53.514;9.988;2023-11-21T12:33:00;3.30;;;2.43;;
14139;SDS011;7150;53.514;9.988;2023-11-21T12:35:31;3.27;;;2.53;;
14139;SDS011;7150;53.514;9.988;2023-11-21T12:37:59;3.53;;;2.30;;
14139;SDS011;7150;53.514;9.988;2023-11-21T12:40:27;4.57;;;2.80;;
14139;SDS011;7150;53.514;9.988;2023-11-21T12:42:55;3.00;;;2.23;;
14139;SDS011;7150;53.514;9.988;2023-11-21T12:45:22;3.17;;;2.10;;
14139;SDS011;7150;53.514;9.988;2023-11-21T12:47:51;2.63;;;2.20;;
14139;SDS011;7150;53.514;9.988;2023-11-21T12:50:26;6.07;;;2.10;;
14139;SDS011;7150;53.514;9.988;2023-11-21T12:53:00;4.83;;;2.50;;
14139;SDS011;7150;53.514;9.988;2023-11-21T12:55:29;2.70;;;2.20;;
14139;SDS011;7150;53.514;9.988;2023-11-21T12:57:56;3.47;;;2.50;;
14139;SDS011;7150;53.514;9.988;2023-11-21T13:00:28;4.47;;;2.23;;
14139;SDS011;7150;53.514;9.988;2023-11-21T13:02:58;3.37;;;2.27;;
14139;SDS011;7150;53.514;9.988;2023-11-21T13:05:31;2.70;;;2.03;;
14139;SDS011;7150;53.514;9.988;2023-11-21T13:08:03;3.50;;;2.10;;
14139;SDS011;7150;53.514;9.988;2023-11-21T13:10:33;3.37;;;2.30;;
14139;SDS011;7150;53.514;9.988;2023-11-21T13:13:05;4.67;;;2.50;;
14139;SDS011;7150;53.514;9.988;2023-11-21T13:15:33;3.77;;;2.40;;
14139;SDS011;7150;53.514;9.988;2023-11-21T13:18:01;3.87;;;2.10;;
14139;SDS011;7150;53.514;9.988;2023-11-21T13:20:28;3.57;;;2.17;;
14139;SDS011;7150;53.514;9.988;2023-11-21T13:22:55;3.40;;;2.27;;
14139;SDS011;7150;53.514;9.988;2023-11-21T13:25:25;3.13;;;2.27;;
14139;SDS011;7150;53.514;9.988;2023-11-21T13:27:55;3.93;;;2.20;;
14139;SDS011;7150;53.514;9.988;2023-11-21T13:30:22;3.37;;;2.10;;
14139;SDS011;7150;53.514;9.988;2023-11-21T13:32:52;3.97;;;2.10;;
14139;SDS011;7150;53.514;9.988;2023-11-21T13:35:22;3.03;;;2.20;;
14139;SDS011;7150;53.514;9.988;2023-11-21T13:37:55;2.83;;;2.20;;
14139;SDS011;7150;53.514;9.988;2023-11-21T13:40:24;4.70;;;2.60;;
14139;SDS011;7150;53.514;9.988;2023-11-21T13:42:55;2.83;;;2.30;;
14139;SDS011;7150;53.514;9.988;2023-11-21T13:45:24;4.37;;;2.50;;
14139;SDS011;7150;53.514;9.988;2023-11-21T13:47:52;2.90;;;2.50;;
14139;SDS011;7150;53.514;9.988;2023-11-21T13:50:22;2.60;;;2.20;;
14139;SDS011;7150;53.514;9.988;2023-11-21T13:52:51;2.90;;;2.40;;
14139;SDS011;7150;53.514;9.988;2023-11-21T13:55:18;4.40;;;2.43;;
14139;SDS011;7150;53.514;9.988;2023-11-21T13:57:44;3.37;;;2.37;;
14139;SDS011;7150;53.514;9.988;2023-11-21T14:00:14;4.47;;;2.17;;
14139;SDS011;7150;53.514;9.988;2023-11-21T14:03:06;2.70;;;1.80;;
14139;SDS011;7150;53.514;9.988;2023-11-21T14:05:42;2.37;;;2.17;;
14139;SDS011;7150;53.514;9.988;2023-11-21T14:08:09;2.97;;;2.20;;
14139;SDS011;7150;53.514;9.988;2023-11-21T14:10:37;3.23;;;2.30;;
14139;SDS011;7150;53.514;9.988;2023-11-21T14:13:07;2.67;;;2.20;;
14139;SDS011;7150;53.514;9.988;2023-11-21T14:15:35;3.07;;;2.17;;
14139;SDS011;7150;53.514;9.988;2023-11-21T14:18:06;4.17;;;2.07;;
14139;SDS011;7150;53.514;9.988;2023-11-21T14:20:35;4.30;;;2.30;;
14139;SDS011;7150;53.514;9.988;2023-11-21T14:23:02;3.27;;;2.37;;
14139;SDS011;7150;53.514;9.988;2023-11-21T14:25:30;2.97;;;2.20;;
14139;SDS011;7150;53.514;9.988;2023-11-21T14:27:57;3.03;;;2.30;;
14139;SDS011;7150;53.514;9.988;2023-11-21T14:30:22;2.43;;;2.20;;
14139;SDS011;7150;53.514;9.988;2023-11-21T14:32:48;3.67;;;2.20;;
14139;SDS011;7150;53.514;9.988;2023-11-21T14:35:15;4.13;;;2.20;;
14139;SDS011;7150;53.514;9.988;2023-11-21T14:37:41;2.80;;;2.30;;
14139;SDS011;7150;53.514;9.988;2023-11-21T14:40:07;2.70;;;2.30;;
14139;SDS011;7150;53.514;9.988;2023-11-21T14:42:33;3.07;;;2.20;;
14139;SDS011;7150;53.514;9.988;2023-11-21T14:45:02;2.63;;;2.10;;
14139;SDS011;7150;53.514;9.988;2023-11-21T14:47:31;3.17;;;2.30;;
14139;SDS011;7150;53.514;9.988;2023-11-21T14:49:57;2.57;;;2.00;;
14139;SDS011;7150;53.514;9.988;2023-11-21T14:52:24;2.53;;;2.27;;
14139;SDS011;7150;53.514;9.988;2023-11-21T14:55:00;2.47;;;1.93;;
14139;SDS011;7150;53.514;9.988;2023-11-21T14:57:58;2.93;;;2.00;;
14139;SDS011;7150;53.514;9.988;2023-11-21T15:00:28;2.53;;;1.90;;
14139;SDS011;7150;53.514;9.988;2023-11-21T15:03:07;2.50;;;2.00;;
14139;SDS011;7150;53.514;9.988;2023-11-21T15:05:34;3.47;;;2.20;;
14139;SDS011;7150;53.514;9.988;2023-11-21T15:08:00;3.10;;;2.10;;
14139;SDS011;7150;53.514;9.988;2023-11-21T15:10:46;2.60;;;2.30;;
14139;SDS011;7150;53.514;9.988;2023-11-21T15:13:17;2.67;;;2.30;;
14139;SDS011;7150;53.514;9.988;2023-11-21T15:15:43;2.67;;;2.03;;